createdAt,value
2022-09-02T00:00:01.578Z,82.45
2022-09-02T00:02:36.231Z,83.26
2022-09-02T00:05:09.900Z,82.24
2022-09-02T00:07:43.040Z,82.93
2022-09-02T00:10:16.181Z,82.84
2022-09-02T00:12:49.245Z,83.37
2022-09-02T00:15:23.078Z,84.02
2022-09-02T00:17:59.067Z,83.66
2022-09-02T00:20:32.515Z,82.82
2022-09-02T00:23:06.083Z,84.04
2022-09-02T00:25:41.477Z,83.79
2022-09-02T00:28:16.875Z,83.94
2022-09-02T00:30:52.183Z,84.83
2022-09-02T00:33:26.625Z,84.10
2022-09-02T00:36:01.266Z,83.82
2022-09-02T00:38:36.953Z,84.18
2022-09-02T00:41:12.439Z,85.29
2022-09-02T00:43:48.703Z,85.08
2022-09-02T00:46:27.149Z,84.39
2022-09-02T00:49:10.171Z,84.65
2022-09-02T00:51:50.095Z,84.99
2022-09-02T00:54:25.659Z,85.68
2022-09-02T00:56:59.700Z,85.59
2022-09-02T00:59:47.699Z,85.36
2022-09-02T01:02:24.088Z,85.19
2022-09-02T01:04:59.585Z,85.58
2022-09-02T01:07:36.826Z,85.74
2022-09-02T01:10:15.438Z,85.80
2022-09-02T01:12:49.272Z,86.07
2022-09-02T01:15:23.831Z,86.59
2022-09-02T01:17:57.030Z,87.06
2022-09-02T01:20:32.843Z,86.30
2022-09-02T01:23:07.723Z,86.60
2022-09-02T01:25:41.302Z,86.54
2022-09-02T01:28:18.421Z,86.35
2022-09-02T01:30:55.705Z,86.49
2022-09-02T01:33:29.222Z,86.76
2022-09-02T01:36:05.891Z,85.75
2022-09-02T01:38:40.387Z,86.62
2022-09-02T01:41:13.468Z,86.59
2022-09-02T01:43:46.619Z,85.78
2022-09-02T01:46:20.440Z,86.17
2022-09-02T01:48:53.569Z,86.22
2022-09-02T01:51:26.715Z,86.32
2022-09-02T01:54:01.178Z,87.03
2022-09-02T01:56:34.319Z,86.81
2022-09-02T01:59:08.367Z,86.83
2022-09-02T02:01:41.540Z,86.71
2022-09-02T02:04:15.986Z,86.71
2022-09-02T02:06:52.332Z,87.08
2022-09-02T02:09:28.471Z,86.67
2022-09-02T02:12:01.551Z,86.16
2022-09-02T02:14:35.330Z,86.05
2022-09-02T02:17:09.102Z,86.60
2022-09-02T02:19:43.729Z,86.55
2022-09-02T02:22:17.458Z,86.34
2022-09-02T02:24:51.882Z,85.80
2022-09-02T02:27:25.051Z,86.75
2022-09-02T02:29:58.214Z,86.54
2022-09-02T02:32:32.586Z,86.30
2022-09-02T02:35:06.554Z,86.53
2022-09-02T02:37:39.876Z,87.06
2022-09-02T02:40:14.578Z,86.20
2022-09-02T02:42:47.978Z,86.65
2022-09-02T02:45:21.863Z,86.77
2022-09-02T02:47:55.710Z,86.53
2022-09-02T02:50:28.831Z,87.19
2022-09-02T02:53:02.649Z,87.02
2022-09-02T02:55:37.154Z,87.32
2022-09-02T02:58:10.282Z,87.21
2022-09-02T03:00:49.660Z,87.05
2022-09-02T03:03:22.813Z,87.38
2022-09-02T03:05:56.042Z,87.90
2022-09-02T03:08:29.192Z,88.30
2022-09-02T03:11:04.068Z,87.98
2022-09-02T03:13:37.894Z,87.59
2022-09-02T03:16:11.348Z,87.60
2022-09-02T03:18:44.418Z,87.33
2022-09-02T03:21:18.611Z,87.34
2022-09-02T03:23:51.671Z,86.82
2022-09-02T03:26:27.291Z,87.30
2022-09-02T03:29:00.437Z,87.73
2022-09-02T03:31:33.610Z,87.38
2022-09-02T03:34:06.949Z,87.13
2022-09-02T03:36:44.106Z,86.64
2022-09-02T03:39:17.229Z,86.97
2022-09-02T03:41:53.293Z,87.55
2022-09-02T03:44:26.386Z,87.50
2022-09-02T03:46:59.483Z,87.73
2022-09-02T03:49:32.603Z,87.53
2022-09-02T03:52:06.492Z,87.86
2022-09-02T03:54:39.751Z,87.64
2022-09-02T03:57:14.640Z,87.79
2022-09-02T03:59:47.934Z,87.91
2022-09-02T04:02:21.183Z,87.73
2022-09-02T04:04:54.462Z,87.62
2022-09-02T04:07:27.602Z,87.50
2022-09-02T04:10:00.651Z,87.15
2022-09-02T04:12:35.514Z,87.05
2022-09-02T04:15:11.618Z,87.47
2022-09-02T04:17:44.840Z,86.96
2022-09-02T04:20:18.022Z,86.90
2022-09-02T04:22:51.142Z,86.79
2022-09-02T04:25:27.713Z,87.51
2022-09-02T04:28:02.315Z,87.71
2022-09-02T04:30:35.445Z,87.51
2022-09-02T04:33:08.544Z,87.86
2022-09-02T04:35:42.540Z,88.40
2022-09-02T04:38:16.236Z,88.00
2022-09-02T04:40:49.703Z,87.91
2022-09-02T04:43:24.213Z,88.25
2022-09-02T04:45:57.723Z,87.82
2022-09-02T04:48:31.099Z,87.70
2022-09-02T04:51:09.821Z,88.03
2022-09-02T04:53:43.227Z,87.82
2022-09-02T04:56:20.608Z,87.85
2022-09-02T04:58:56.228Z,88.05
2022-09-02T05:01:33.305Z,87.17
2022-09-02T05:04:09.662Z,87.06
2022-09-02T05:06:44.556Z,87.04
2022-09-02T05:09:18.872Z,86.54
2022-09-02T05:11:52.142Z,87.54
2022-09-02T05:14:27.470Z,87.78
2022-09-02T05:17:07.221Z,87.60
2022-09-02T05:19:40.983Z,87.35
2022-09-02T05:22:14.769Z,87.28
2022-09-02T05:24:48.187Z,87.52
2022-09-02T05:27:21.296Z,87.26
2022-09-02T05:29:59.512Z,87.22
2022-09-02T05:32:37.014Z,86.71
2022-09-02T05:35:11.145Z,86.43
2022-09-02T05:37:44.258Z,86.25
2022-09-02T05:40:17.454Z,85.24
2022-09-02T05:42:55.754Z,84.01
2022-09-02T05:45:30.219Z,82.70
2022-09-02T05:48:24.265Z,80.96
2022-09-02T05:50:58.489Z,79.29
2022-09-02T05:53:31.737Z,77.40
2022-09-02T05:56:06.479Z,76.52
2022-09-02T05:58:39.607Z,74.15
2022-09-02T06:01:17.322Z,71.72
2022-09-02T06:03:52.394Z,70.02
2022-09-02T06:06:25.562Z,68.00
2022-09-02T06:08:59.314Z,66.39
2022-09-02T06:11:32.407Z,66.84
2022-09-02T06:14:07.471Z,64.98
2022-09-02T06:16:42.853Z,62.93
2022-09-02T06:19:19.676Z,61.67
2022-09-02T06:21:54.878Z,60.40
2022-09-02T06:24:30.154Z,61.24
2022-09-02T06:27:04.147Z,60.33
2022-09-02T06:29:37.852Z,58.16
2022-09-02T06:32:12.282Z,57.47
2022-09-02T06:34:45.347Z,56.07
2022-09-02T06:37:18.451Z,55.80
2022-09-02T06:39:51.523Z,53.95
2022-09-02T06:42:25.671Z,54.12
2022-09-02T06:44:58.910Z,54.60
2022-09-02T06:47:33.442Z,54.25
2022-09-02T06:50:07.756Z,53.26
2022-09-02T06:52:41.076Z,52.00
2022-09-02T06:55:16.292Z,52.66
2022-09-02T06:57:49.393Z,52.62
2022-09-02T07:00:23.087Z,50.53
2022-09-02T07:03:11.437Z,51.13
2022-09-02T07:05:44.690Z,49.19
2022-09-02T07:08:17.758Z,48.45
2022-09-02T07:10:50.845Z,47.49
2022-09-02T07:13:24.028Z,46.73
2022-09-02T07:15:57.302Z,44.40
2022-09-02T07:18:31.728Z,44.14
2022-09-02T07:21:05.343Z,45.48
2022-09-02T07:23:40.602Z,44.19
2022-09-02T07:26:14.685Z,44.80
2022-09-02T07:28:48.569Z,43.56
2022-09-02T07:31:23.303Z,44.42
2022-09-02T07:33:59.126Z,46.06
2022-09-02T07:36:32.271Z,45.87
2022-09-02T07:39:07.485Z,45.32
2022-09-02T07:41:42.563Z,45.14
2022-09-02T07:44:17.645Z,45.62
2022-09-02T07:46:50.718Z,44.84
2022-09-02T07:49:25.266Z,44.61
2022-09-02T07:51:58.539Z,46.61
2022-09-02T07:54:32.070Z,45.15
2022-09-02T07:57:05.502Z,45.77
2022-09-02T07:59:38.681Z,45.76
2022-09-02T08:02:11.911Z,44.65
2022-09-02T08:04:46.499Z,44.27
2022-09-02T08:07:24.187Z,44.56
2022-09-02T08:09:58.510Z,45.29
2022-09-02T08:12:31.722Z,44.43
2022-09-02T08:15:06.367Z,45.38
2022-09-02T08:17:41.152Z,44.38
2022-09-02T08:20:16.628Z,43.69
2022-09-02T08:22:55.965Z,43.94
2022-09-02T08:25:39.079Z,43.93
2022-09-02T08:28:12.352Z,43.34
2022-09-02T08:30:46.007Z,42.91
2022-09-02T08:33:19.087Z,42.50
2022-09-02T08:35:53.632Z,43.41
2022-09-02T08:38:28.070Z,42.02
2022-09-02T08:41:01.739Z,42.40
2022-09-02T08:43:40.134Z,40.51
2022-09-02T08:46:18.199Z,39.81
2022-09-02T08:48:57.097Z,39.95
2022-09-02T08:51:37.196Z,39.90
2022-09-02T08:54:21.941Z,40.06
2022-09-02T08:56:55.088Z,39.11
2022-09-02T08:59:31.536Z,38.57
2022-09-02T09:02:16.751Z,39.70
2022-09-02T09:05:18.257Z,40.69
2022-09-02T09:08:13.937Z,40.43
2022-09-02T09:10:58.884Z,38.52
2022-09-02T09:13:51.815Z,38.41
2022-09-02T09:16:44.415Z,38.88
2022-09-02T09:19:24.951Z,38.33
2022-09-02T09:22:03.344Z,38.81
2022-09-02T09:24:41.522Z,39.51
2022-09-02T09:27:18.026Z,38.44
2022-09-02T09:29:52.499Z,38.24
2022-09-02T09:32:30.411Z,38.26
2022-09-02T09:35:08.278Z,37.48
2022-09-02T09:37:44.232Z,37.92
2022-09-02T09:40:30.464Z,37.32
2022-09-02T09:43:16.208Z,37.72
2022-09-02T09:45:51.498Z,36.57
2022-09-02T09:48:31.049Z,35.97
2022-09-02T09:51:16.477Z,36.60
2022-09-02T09:53:49.702Z,35.23
2022-09-02T09:56:32.274Z,36.35
2022-09-02T09:59:49.929Z,34.95
2022-09-02T10:02:26.007Z,35.89
2022-09-02T10:05:18.875Z,35.88
2022-09-02T10:07:56.910Z,35.62
2022-09-02T10:10:34.314Z,34.92
2022-09-02T10:13:25.590Z,35.41
2022-09-02T10:16:19.318Z,34.53
2022-09-02T10:18:58.639Z,34.55
2022-09-02T10:21:51.996Z,34.82
2022-09-02T10:24:45.459Z,35.07
2022-09-02T10:27:29.157Z,34.37
2022-09-02T10:30:09.757Z,34.63
2022-09-02T10:33:07.657Z,34.84
2022-09-02T10:35:45.414Z,33.44
2022-09-02T10:38:34.244Z,33.61
2022-09-02T10:41:32.564Z,33.95
2022-09-02T10:44:30.196Z,33.73
2022-09-02T10:47:11.630Z,33.25
2022-09-02T10:49:59.324Z,33.23
2022-09-02T10:53:12.035Z,33.46
2022-09-02T10:55:54.751Z,33.93
2022-09-02T10:58:46.756Z,33.71
2022-09-02T11:01:25.537Z,34.32
2022-09-02T11:04:08.848Z,33.15
2022-09-02T11:07:01.961Z,34.30
2022-09-02T11:09:41.679Z,34.42
2022-09-02T11:12:19.762Z,35.62
2022-09-02T11:15:04.344Z,34.52
2022-09-02T11:17:43.626Z,34.64
2022-09-02T11:20:31.349Z,34.31
2022-09-02T11:23:16.187Z,34.98
2022-09-02T11:25:55.648Z,33.68
2022-09-02T11:28:39.703Z,33.56
2022-09-02T11:31:20.343Z,34.19
2022-09-02T11:33:58.762Z,34.85
2022-09-02T11:36:38.769Z,34.64
2022-09-02T11:39:30.636Z,34.41
2022-09-02T11:42:30.321Z,34.70
2022-09-02T11:45:28.354Z,35.10
2022-09-02T11:48:52.996Z,33.52
2022-09-02T11:51:59.093Z,34.15
2022-09-02T11:54:40.017Z,34.24
2022-09-02T11:57:22.259Z,34.17
2022-09-02T12:00:15.627Z,33.91
2022-09-02T12:02:52.648Z,34.33
2022-09-02T12:05:51.481Z,33.89
2022-09-02T12:09:12.192Z,33.77
2022-09-02T12:11:54.975Z,34.55
2022-09-02T12:15:11.587Z,34.54
2022-09-02T12:18:13.904Z,34.60
2022-09-02T12:21:16.006Z,35.39
2022-09-02T12:24:22.509Z,35.06
2022-09-02T12:27:24.594Z,34.44
2022-09-02T12:29:59.783Z,35.60
2022-09-02T12:33:05.072Z,34.93
2022-09-02T12:35:58.245Z,34.89
2022-09-02T12:38:40.232Z,34.98
2022-09-02T12:41:31.012Z,34.59
2022-09-02T12:44:24.323Z,34.33
2022-09-02T12:47:06.619Z,33.77
2022-09-02T12:49:49.933Z,34.31
2022-09-02T12:52:47.307Z,34.69
2022-09-02T12:55:25.243Z,34.48
2022-09-02T12:58:11.071Z,35.33
2022-09-02T13:01:01.259Z,35.54
2022-09-02T13:04:22.979Z,35.20
2022-09-02T13:07:32.226Z,36.30
2022-09-02T13:10:33.326Z,36.64
2022-09-02T13:13:40.522Z,36.19
2022-09-02T13:16:19.028Z,35.92
2022-09-02T13:19:47.538Z,36.40
2022-09-02T13:22:57.115Z,36.44
2022-09-02T13:25:58.127Z,36.76
2022-09-02T13:29:06.541Z,37.03
2022-09-02T13:31:39.888Z,36.46
2022-09-02T13:34:14.825Z,36.39
2022-09-02T13:36:48.332Z,36.55
2022-09-02T13:39:26.134Z,36.33
2022-09-02T13:41:59.207Z,36.33
2022-09-02T13:44:33.775Z,36.30
2022-09-02T13:47:17.331Z,36.39
2022-09-02T13:49:53.938Z,36.63
2022-09-02T13:53:01.129Z,36.03
2022-09-02T13:55:20.810Z,36.54
2022-09-02T13:58:04.263Z,36.50
2022-09-02T14:00:48.137Z,35.99
2022-09-02T14:03:22.589Z,36.07
2022-09-02T14:05:59.602Z,36.11
2022-09-02T14:08:33.164Z,36.15
2022-09-02T14:11:11.474Z,36.51
2022-09-02T14:13:50.728Z,36.83
2022-09-02T14:16:34.338Z,36.66
2022-09-02T14:19:14.655Z,36.96
2022-09-02T14:21:51.370Z,36.27
2022-09-02T14:24:26.960Z,35.73
2022-09-02T14:27:01.511Z,36.03
2022-09-02T14:29:34.756Z,35.87
2022-09-02T14:32:14.364Z,34.91
2022-09-02T14:34:49.297Z,35.11
2022-09-02T14:37:25.834Z,34.62
2022-09-02T14:40:11.720Z,35.50
2022-09-02T14:42:56.581Z,35.59
2022-09-02T14:45:33.333Z,35.26
2022-09-02T14:48:20.361Z,35.29
2022-09-02T14:51:02.492Z,34.85
2022-09-02T14:53:38.532Z,35.02
2022-09-02T14:56:11.668Z,35.14
2022-09-02T14:58:44.738Z,35.31
2022-09-02T15:01:17.842Z,35.26
2022-09-02T15:03:52.309Z,35.25
2022-09-02T15:06:25.360Z,34.36
2022-09-02T15:08:58.443Z,35.29
2022-09-02T15:11:31.755Z,35.45
2022-09-02T15:14:04.815Z,35.13
2022-09-02T15:16:37.901Z,35.68
2022-09-02T15:19:12.384Z,35.61
2022-09-02T15:21:45.643Z,35.25
2022-09-02T15:24:18.768Z,34.72
2022-09-02T15:26:51.949Z,34.70
2022-09-02T15:29:28.789Z,34.51
2022-09-02T15:32:04.039Z,35.36
2022-09-02T15:34:38.543Z,35.56
2022-09-02T15:37:13.181Z,34.85
2022-09-02T15:39:46.576Z,35.11
2022-09-02T15:42:19.868Z,35.46
2022-09-02T15:44:52.975Z,35.71
2022-09-02T15:47:29.952Z,35.24
2022-09-02T15:50:05.615Z,35.41
2022-09-02T15:52:38.961Z,36.14
2022-09-02T15:55:12.054Z,36.14
2022-09-02T15:57:45.556Z,35.45
2022-09-02T16:00:19.201Z,35.35
2022-09-02T16:02:52.316Z,35.89
2022-09-02T16:05:27.045Z,35.75
2022-09-02T16:08:00.146Z,35.58
2022-09-02T16:10:33.331Z,35.85
2022-09-02T16:13:06.387Z,36.20
2022-09-02T16:15:39.539Z,36.00
2022-09-02T16:18:13.038Z,36.51
2022-09-02T16:20:47.514Z,36.17
2022-09-02T16:23:20.683Z,36.21
2022-09-02T16:26:15.987Z,35.80
2022-09-02T16:28:49.844Z,35.98
2022-09-02T16:31:24.831Z,36.39
2022-09-02T16:34:00.638Z,36.62
2022-09-02T16:36:38.029Z,36.42
2022-09-02T16:39:13.053Z,36.68
2022-09-02T16:41:48.512Z,36.53
2022-09-02T16:44:24.668Z,36.84
2022-09-02T16:46:57.762Z,37.26
2022-09-02T16:49:31.941Z,37.44
2022-09-02T16:52:06.774Z,37.74
2022-09-02T16:54:41.110Z,38.33
2022-09-02T16:57:14.370Z,38.77
2022-09-02T16:59:47.535Z,38.96
2022-09-02T17:02:20.975Z,39.15
2022-09-02T17:04:54.168Z,39.83
2022-09-02T17:07:28.752Z,40.20
2022-09-02T17:10:01.836Z,40.27
2022-09-02T17:12:37.458Z,41.09
2022-09-02T17:15:12.985Z,41.39
2022-09-02T17:17:46.669Z,41.63
2022-09-02T17:20:22.851Z,41.75
2022-09-02T17:22:57.364Z,41.87
2022-09-02T17:25:30.426Z,41.78
2022-09-02T17:28:06.168Z,42.02
2022-09-02T17:30:41.139Z,42.00
2022-09-02T17:33:14.527Z,41.59
2022-09-02T17:35:56.779Z,41.75
2022-09-02T17:38:31.230Z,42.12
2022-09-02T17:41:21.944Z,42.51
2022-09-02T17:43:55.482Z,43.06
2022-09-02T17:46:28.755Z,43.48
2022-09-02T17:49:16.769Z,43.91
2022-09-02T17:51:50.843Z,44.39
2022-09-02T17:54:25.556Z,45.99
2022-09-02T17:57:16.968Z,47.27
2022-09-02T18:00:06.049Z,47.97
2022-09-02T18:03:03.335Z,48.50
2022-09-02T18:05:54.396Z,48.07
2022-09-02T18:08:36.589Z,48.10
2022-09-02T18:11:11.273Z,47.95
2022-09-02T18:13:54.591Z,47.98
2022-09-02T18:16:36.812Z,47.80
2022-09-02T18:19:25.313Z,47.85
2022-09-02T18:22:11.688Z,48.62
2022-09-02T18:24:58.500Z,49.02
2022-09-02T18:27:47.909Z,50.35
2022-09-02T18:30:30.537Z,50.76
2022-09-02T18:33:36.571Z,50.92
2022-09-02T18:36:22.408Z,50.84
2022-09-02T18:39:16.454Z,51.15
2022-09-02T18:42:08.306Z,50.59
2022-09-02T18:44:53.509Z,50.83
2022-09-02T18:47:32.705Z,50.89
2022-09-02T18:50:11.367Z,51.96
2022-09-02T18:52:53.326Z,53.03
2022-09-02T18:55:34.747Z,53.42
2022-09-02T18:58:13.339Z,54.32
2022-09-02T19:00:51.442Z,54.76
2022-09-02T19:03:36.107Z,55.15
2022-09-02T19:06:17.975Z,55.43
2022-09-02T19:08:59.359Z,55.47
2022-09-02T19:11:35.634Z,55.40
2022-09-02T19:14:27.343Z,55.52
2022-09-02T19:17:02.635Z,55.61
2022-09-02T19:19:36.427Z,55.87
2022-09-02T19:22:12.478Z,56.03
2022-09-02T19:24:49.461Z,56.86
2022-09-02T19:27:25.310Z,56.42
2022-09-02T19:30:05.990Z,56.72
2022-09-02T19:32:44.811Z,56.64
2022-09-02T19:35:21.882Z,56.65
2022-09-02T19:37:55.947Z,56.62
2022-09-02T19:40:33.224Z,56.69
2022-09-02T19:43:07.527Z,56.96
2022-09-02T19:45:41.081Z,57.10
2022-09-02T19:48:15.648Z,57.15
2022-09-02T19:50:49.789Z,57.45
2022-09-02T19:53:27.873Z,58.32
2022-09-02T19:56:01.466Z,58.52
2022-09-02T19:58:35.587Z,58.64
2022-09-02T20:01:09.482Z,58.94
2022-09-02T20:03:44.520Z,58.97
2022-09-02T20:06:17.607Z,59.08
2022-09-02T20:08:51.731Z,59.46
2022-09-02T20:11:25.018Z,59.91
2022-09-02T20:13:58.433Z,59.77
2022-09-02T20:16:32.958Z,59.79
2022-09-02T20:19:07.608Z,59.74
2022-09-02T20:21:45.712Z,59.72
2022-09-02T20:24:25.582Z,59.96
2022-09-02T20:27:07.928Z,59.90
2022-09-02T20:30:03.040Z,60.24
2022-09-02T20:32:53.859Z,60.24
2022-09-02T20:35:51.478Z,59.87
2022-09-02T20:38:53.624Z,59.88
2022-09-02T20:41:36.349Z,60.03
2022-09-02T20:44:30.776Z,60.58
2022-09-02T20:47:24.559Z,60.87
2022-09-02T20:50:27.936Z,60.59
2022-09-02T20:53:23.806Z,60.48
2022-09-02T20:56:04.071Z,60.66
2022-09-02T20:58:50.812Z,60.65
2022-09-02T21:01:28.363Z,61.03
2022-09-02T21:04:08.600Z,60.80
2022-09-02T21:06:48.808Z,61.30
2022-09-02T21:09:36.194Z,61.68
2022-09-02T21:12:22.046Z,61.50
2022-09-02T21:15:02.454Z,61.00
2022-09-02T21:17:47.757Z,61.20
2022-09-02T21:20:29.697Z,60.89
2022-09-02T21:23:11.282Z,60.04
2022-09-02T21:25:53.096Z,60.69
2022-09-02T21:28:34.628Z,60.18
2022-09-02T21:31:15.607Z,60.33
2022-09-02T21:33:52.022Z,61.09
2022-09-02T21:36:30.332Z,61.16
2022-09-02T21:39:10.029Z,61.38
2022-09-02T21:41:48.892Z,61.90
2022-09-02T21:44:34.971Z,62.44
2022-09-02T21:47:21.343Z,63.70
2022-09-02T21:50:11.799Z,65.46
2022-09-02T21:52:59.810Z,66.00
2022-09-02T21:55:53.466Z,66.06
2022-09-02T21:58:53.927Z,65.11
2022-09-02T22:01:44.325Z,65.94
2022-09-02T22:04:39.357Z,66.33
2022-09-02T22:07:20.172Z,67.72
2022-09-02T22:10:08.672Z,67.53
2022-09-02T22:12:48.833Z,68.01
2022-09-02T22:15:39.474Z,68.40
2022-09-02T22:18:24.667Z,68.45
2022-09-02T22:21:03.932Z,69.25
2022-09-02T22:23:37.620Z,69.05
2022-09-02T22:26:31.515Z,68.40
2022-09-02T22:29:11.600Z,68.84
2022-09-02T22:31:54.054Z,67.89
2022-09-02T22:34:29.409Z,68.09
2022-09-02T22:37:07.860Z,68.41
2022-09-02T22:39:49.627Z,69.02
2022-09-02T22:42:34.100Z,68.94
2022-09-02T22:45:30.298Z,68.87
2022-09-02T22:48:28.963Z,67.77
2022-09-02T22:51:25.538Z,67.89
2022-09-02T22:53:58.631Z,67.50
2022-09-02T22:56:42.098Z,67.41
2022-09-02T22:59:31.623Z,68.11
2022-09-02T23:02:19.486Z,68.03
2022-09-02T23:05:30.787Z,67.78
2022-09-02T23:08:04.758Z,68.20
2022-09-02T23:10:47.288Z,68.22
2022-09-02T23:13:37.222Z,67.35
2022-09-02T23:16:21.735Z,67.03
2022-09-02T23:19:09.377Z,67.60
2022-09-02T23:21:54.348Z,67.66
2022-09-02T23:24:45.019Z,67.74
2022-09-02T23:27:27.021Z,67.77
2022-09-02T23:30:00.209Z,67.78
2022-09-02T23:33:10.057Z,67.80
2022-09-02T23:35:52.003Z,67.42
2022-09-02T23:39:00.936Z,67.82
2022-09-02T23:41:36.248Z,67.70
2022-09-02T23:44:12.553Z,68.02
2022-09-02T23:47:02.664Z,68.20
2022-09-02T23:49:45.622Z,67.89
2022-09-02T23:52:27.327Z,68.27
2022-09-02T23:55:20.542Z,68.44
2022-09-02T23:58:21.068Z,68.03
